Time;durP1;ratioP1;P1;durP2;ratioP2;P2;SDS_P1;SDS_P2;PMS_P1;PMS_P2;Temp;Humidity;BMP_temperature;BMP_pressure;BME280_temperature;BME280_humidity;BME280_pressure;Samples;Min_cycle;Max_cycle;Signal;HPM_P1;HPM_P2
2021/04/17 00:01:55;;;;;;;7.63;3.60;;;;;;;3.60;75.46;103144.59;5039960;28;20056;-73
2021/04/17 00:04:24;;;;;;;7.65;3.80;;;;;;;3.57;75.07;103136.56;5041736;28;20067;-73
2021/04/17 00:06:51;;;;;;;6.00;3.60;;;;;;;3.56;75.28;103134.78;5042227;28;20156;-73
2021/04/17 00:09:20;;;;;;;8.45;3.47;;;;;;;3.51;75.38;103132.00;5039790;28;20440;-75
2021/04/17 00:11:49;;;;;;;8.63;3.53;;;;;;;3.44;75.40;103127.34;5037512;28;20072;-75
2021/04/17 00:14:20;;;;;;;6.60;3.55;;;;;;;3.46;75.67;103140.59;5042908;28;20054;-75
2021/04/17 00:16:59;;;;;;;7.45;3.90;;;;;;;3.43;75.43;103132.56;5042111;28;20068;-74
2021/04/17 00:19:27;;;;;;;9.98;4.03;;;;;;;3.36;75.54;103134.09;5043321;28;20049;-75
2021/04/17 00:21:54;;;;;;;6.07;3.53;;;;;;;3.33;75.65;103139.28;5040084;28;20060;-75
2021/04/17 00:24:21;;;;;;;7.05;3.53;;;;;;;3.33;75.67;103136.63;5042638;28;20152;-74
2021/04/17 00:26:48;;;;;;;8.20;3.65;;;;;;;3.31;75.60;103133.94;5039516;28;20068;-74
2021/04/17 00:29:15;;;;;;;6.82;3.75;;;;;;;3.25;75.43;103144.31;5043878;28;20067;-74
2021/04/17 00:31:42;;;;;;;7.13;2.90;;;;;;;3.28;75.66;103139.09;5039203;28;20069;-74
2021/04/17 00:34:09;;;;;;;9.38;4.55;;;;;;;3.24;75.86;103134.56;5042469;28;20060;-74
2021/04/17 00:36:36;;;;;;;7.07;3.35;;;;;;;3.18;75.78;103143.19;5038119;28;20069;-73
2021/04/17 00:39:04;;;;;;;7.13;3.60;;;;;;;3.14;76.13;103138.63;5043248;28;20058;-75
2021/04/17 00:41:31;;;;;;;7.80;3.47;;;;;;;3.07;75.48;103131.34;5042227;28;20065;-75
2021/04/17 00:43:59;;;;;;;7.13;2.90;;;;;;;3.07;76.15;103133.97;5039982;28;20060;-76
2021/04/17 00:46:26;;;;;;;6.93;3.72;;;;;;;3.03;76.08;103129.44;5041433;28;20101;-76
2021/04/17 00:48:53;;;;;;;5.55;2.60;;;;;;;3.05;76.12;103132.13;5039095;28;20266;-75
2021/04/17 00:51:20;;;;;;;4.50;2.55;;;;;;;2.97;75.83;103132.75;5041336;28;20349;-73
2021/04/17 00:53:46;;;;;;;4.95;2.65;;;;;;;2.96;75.74;103130.06;5041445;28;20339;-74
2021/04/17 00:56:13;;;;;;;3.78;2.58;;;;;;;2.97;75.99;103134.50;5043617;28;20315;-74
2021/04/17 00:58:40;;;;;;;6.57;3.10;;;;;;;2.94;76.39;103135.25;5039800;28;20056;-73
2021/04/17 01:01:08;;;;;;;5.70;2.65;;;;;;;2.90;75.98;103133.38;5040756;28;20092;-74
2021/04/17 01:03:40;;;;;;;7.25;3.22;;;;;;;2.92;76.30;103131.69;5038881;28;20084;-74
2021/04/17 01:06:14;;;;;;;7.15;3.65;;;;;;;2.95;76.59;103125.63;5040393;28;20416;-76
2021/04/17 01:08:50;;;;;;;8.63;3.03;;;;;;;2.97;76.74;103135.38;5039820;28;20065;-73
2021/04/17 01:11:23;;;;;;;5.80;3.15;;;;;;;2.98;76.39;103134.56;5042597;28;20064;-75
2021/04/17 01:13:50;;;;;;;6.43;2.95;;;;;;;2.94;76.18;103124.72;5039561;28;20110;-75
2021/04/17 01:16:19;;;;;;;7.60;3.33;;;;;;;2.95;76.45;103134.44;5042284;28;20098;-75
2021/04/17 01:18:46;;;;;;;6.78;2.80;;;;;;;2.99;76.71;103127.53;5038763;28;20059;-75
2021/04/17 01:21:14;;;;;;;8.52;3.10;;;;;;;3.01;76.68;103127.59;5040087;28;20056;-75
2021/04/17 01:23:45;;;;;;;6.03;2.90;;;;;;;3.01;76.27;103128.47;5039867;28;20064;-75
2021/04/17 01:26:16;;;;;;;5.07;2.72;;;;;;;3.02;76.55;103127.66;5042431;28;20064;-75
2021/04/17 01:28:46;;;;;;;6.13;2.65;;;;;;;3.00;76.63;103126.69;5039695;28;20080;-75
2021/04/17 01:31:15;;;;;;;5.38;2.67;;;;;;;3.04;76.66;103127.69;5041096;28;20068;-76
2021/04/17 01:33:45;;;;;;;5.05;2.67;;;;;;;2.96;76.60;103122.13;5043502;28;20065;-75
2021/04/17 01:36:13;;;;;;;7.95;3.50;;;;;;;2.93;76.47;103122.94;5037491;28;20145;-75
2021/04/17 01:38:43;;;;;;;5.75;3.03;;;;;;;2.88;76.85;103113.97;5041251;28;20431;-74
2021/04/17 01:41:13;;;;;;;5.63;3.55;;;;;;;2.92;77.04;103118.50;5038488;28;20087;-72
2021/04/17 01:43:44;;;;;;;5.18;2.83;;;;;;;2.91;77.12;103111.44;5041378;28;20270;-73
2021/04/17 01:46:15;;;;;;;6.85;3.08;;;;;;;2.86;77.26;103109.47;5039275;28;20057;-72
2021/04/17 01:48:44;;;;;;;6.03;2.85;;;;;;;2.86;77.40;103112.09;5040227;28;20065;-74
2021/04/17 01:51:12;;;;;;;6.13;3.08;;;;;;;2.84;77.18;103114.69;5040027;28;20080;-76
2021/04/17 01:53:42;;;;;;;8.35;3.28;;;;;;;2.80;77.92;103111.03;5042170;28;20434;-75
2021/04/17 01:56:11;;;;;;;7.40;3.30;;;;;;;2.74;77.81;103112.56;5040065;28;20057;-75
2021/04/17 01:58:41;;;;;;;6.18;2.95;;;;;;;2.73;78.38;103114.31;5039255;28;20061;-75
2021/04/17 02:01:08;;;;;;;6.22;3.28;;;;;;;2.75;78.13;103112.59;5037538;28;20061;-75
2021/04/17 02:03:36;;;;;;;5.97;2.97;;;;;;;2.80;78.23;103112.78;5039424;28;20539;-74
2021/04/17 02:06:04;;;;;;;6.40;3.80;;;;;;;2.81;78.17;103111.97;5036081;28;20148;-75
2021/04/17 02:08:35;;;;;;;5.38;2.97;;;;;;;2.75;78.32;103101.19;5040467;28;20107;-75
2021/04/17 02:11:04;;;;;;;6.20;2.75;;;;;;;2.75;78.53;103112.59;5041189;28;20434;-74
2021/04/17 02:13:34;;;;;;;7.05;3.30;;;;;;;2.70;78.42;103111.53;5039959;28;20139;-74
2021/04/17 02:16:04;;;;;;;5.38;2.95;;;;;;;2.73;78.79;103116.06;5036589;28;20117;-74
2021/04/17 02:18:36;;;;;;;8.38;3.30;;;;;;;2.66;79.12;103114.94;5040369;28;20084;-75
2021/04/17 02:21:06;;;;;;;7.50;3.20;;;;;;;2.67;79.00;103114.06;5033512;28;20498;-75
2021/04/17 02:23:34;;;;;;;5.65;3.00;;;;;;;2.67;79.25;103106.16;5042770;28;20057;-74
2021/04/17 02:26:02;;;;;;;7.88;3.05;;;;;;;2.63;79.54;103104.25;5037726;28;20140;-75
2021/04/17 02:28:30;;;;;;;5.95;3.28;;;;;;;2.60;79.60;103107.66;5037492;28;20057;-74
2021/04/17 02:31:03;;;;;;;5.43;3.55;;;;;;;2.69;79.59;103103.56;5037567;28;20103;-74
2021/04/17 02:33:30;;;;;;;6.88;2.92;;;;;;;2.66;79.72;103103.50;5055959;28;20501;-75
2021/04/17 02:35:57;;;;;;;6.63;3.17;;;;;;;2.63;79.83;103100.75;5040038;28;20072;-73
2021/04/17 02:38:24;;;;;;;7.65;3.75;;;;;;;2.61;80.30;103098.94;5036828;28;20056;-74
2021/04/17 02:40:51;;;;;;;6.63;3.38;;;;;;;2.65;80.21;103101.69;5038815;28;20053;-74
2021/04/17 02:43:18;;;;;;;7.00;2.88;;;;;;;2.61;80.45;103100.69;5037300;28;20471;-74
2021/04/17 02:45:45;;;;;;;5.85;3.80;;;;;;;2.70;80.48;103098.38;5038525;28;20065;-73
2021/04/17 02:48:12;;;;;;;5.60;3.55;;;;;;;2.65;80.14;103099.94;5040084;28;20068;-74
2021/04/17 02:50:39;;;;;;;7.90;3.42;;;;;;;2.66;80.63;103095.59;5041255;28;20576;-75
2021/04/17 02:53:06;;;;;;;4.88;2.97;;;;;;;2.65;80.89;103097.31;5035462;28;20073;-74
2021/04/17 02:55:33;;;;;;;9.43;3.58;;;;;;;2.70;80.97;103098.38;5039641;28;20057;-74
2021/04/17 02:58:00;;;;;;;9.13;3.50;;;;;;;2.68;80.94;103101.81;5040363;28;20158;-74
2021/04/17 03:00:28;;;;;;;6.70;3.92;;;;;;;2.70;81.42;103097.47;5038734;28;20436;-74
2021/04/17 03:02:54;;;;;;;8.00;3.70;;;;;;;2.68;80.99;103091.25;5036547;28;20144;-72
2021/04/17 03:05:23;;;;;;;6.20;3.78;;;;;;;2.65;81.70;103093.78;5039861;28;20354;-73
2021/04/17 03:07:50;;;;;;;7.65;3.53;;;;;;;2.59;81.80;103094.47;5039497;28;20072;-72
2021/04/17 03:10:18;;;;;;;5.97;3.42;;;;;;;2.56;81.41;103092.59;5039136;28;20065;-73
2021/04/17 03:12:45;;;;;;;6.03;3.67;;;;;;;2.53;81.71;103097.75;5039366;28;20069;-73
2021/04/17 03:15:12;;;;;;;4.40;2.72;;;;;;;2.49;81.39;103094.97;5039038;28;20309;-72
2021/04/17 03:17:39;;;;;;;7.47;3.38;;;;;;;2.54;81.91;103090.75;5037883;28;20359;-72
2021/04/17 03:20:08;;;;;;;8.30;3.63;;;;;;;2.55;81.73;103087.25;5039045;28;20053;-72
2021/04/17 03:22:37;;;;;;;5.93;3.58;;;;;;;2.58;81.58;103087.38;5040004;28;20172;-72
2021/04/17 03:25:07;;;;;;;6.25;3.60;;;;;;;2.54;81.68;103091.66;5039481;28;20068;-72
2021/04/17 03:27:34;;;;;;;8.25;3.80;;;;;;;2.51;81.99;103088.00;5038864;28;20056;-72
2021/04/17 03:30:00;;;;;;;7.90;3.78;;;;;;;2.50;81.45;103080.91;5036855;28;20346;-72
2021/04/17 03:32:27;;;;;;;5.28;3.05;;;;;;;2.49;81.93;103082.66;5038527;28;20293;-72
2021/04/17 03:34:54;;;;;;;6.07;3.45;;;;;;;2.50;82.22;103094.09;5034266;28;20073;-72
2021/04/17 03:37:21;;;;;;;6.22;3.70;;;;;;;2.49;82.19;103092.31;5039525;28;20060;-72
2021/04/17 03:39:49;;;;;;;6.45;3.92;;;;;;;2.48;82.82;103098.41;5035483;28;20099;-72
2021/04/17 03:42:16;;;;;;;6.93;3.53;;;;;;;2.48;82.47;103094.03;5039742;28;20057;-72
2021/04/17 03:44:43;;;;;;;5.28;3.50;;;;;;;2.51;82.55;103101.19;5040201;28;20064;-73
2021/04/17 03:47:10;;;;;;;7.93;3.67;;;;;;;2.50;83.02;103094.97;5042344;28;20072;-71
2021/04/17 03:49:36;;;;;;;7.10;4.03;;;;;;;2.45;83.30;103086.00;5043649;28;20057;-72
2021/04/17 03:52:03;;;;;;;7.80;3.40;;;;;;;2.45;83.61;103088.66;5043661;28;20067;-74
2021/04/17 03:54:30;;;;;;;8.15;3.95;;;;;;;2.48;83.30;103086.13;5043264;28;20057;-72
2021/04/17 03:56:58;;;;;;;7.13;3.95;;;;;;;2.42;83.33;103081.53;5040189;28;20084;-73
2021/04/17 03:59:25;;;;;;;7.45;3.65;;;;;;;2.47;83.93;103086.06;5045070;28;20148;-72
2021/04/17 04:01:51;;;;;;;6.70;3.75;;;;;;;2.49;83.94;103081.78;5036708;28;20061;-72
2021/04/17 04:04:19;;;;;;;7.63;3.55;;;;;;;2.37;83.45;103085.75;5042061;28;20387;-72
2021/04/17 04:06:46;;;;;;;7.30;4.10;;;;;;;2.35;84.36;103084.78;5039907;28;20056;-73
2021/04/17 04:09:12;;;;;;;9.13;4.50;;;;;;;2.35;84.03;103084.78;5043432;28;20394;-74
2021/04/17 04:11:43;;;;;;;8.48;4.10;;;;;;;2.35;84.78;103087.44;5040978;28;20053;-72
2021/04/17 04:14:11;;;;;;;8.30;4.45;;;;;;;2.33;84.68;103093.47;5044266;28;20063;-72
2021/04/17 04:16:38;;;;;;;8.52;4.03;;;;;;;2.34;84.82;103096.16;5039675;28;20355;-74
2021/04/17 04:19:05;;;;;;;7.32;3.58;;;;;;;2.30;84.52;103096.91;5039322;28;20381;-74
2021/04/17 04:21:32;;;;;;;5.13;2.97;;;;;;;2.28;84.50;103088.00;5041688;28;20052;-71
2021/04/17 04:23:58;;;;;;;5.75;3.50;;;;;;;2.29;84.63;103095.09;5040834;28;20056;-74
2021/04/17 04:26:25;;;;;;;6.97;3.47;;;;;;;2.30;85.07;103102.16;5043464;28;20063;-73
2021/04/17 04:28:52;;;;;;;8.77;3.55;;;;;;;2.34;85.32;103096.16;5038672;28;20061;-74
2021/04/17 04:31:20;;;;;;;9.35;4.53;;;;;;;2.32;85.24;103099.59;5042573;28;20084;-72
2021/04/17 04:33:47;;;;;;;7.60;3.50;;;;;;;2.31;85.08;103092.50;5039902;28;20307;-72
2021/04/17 04:36:14;;;;;;;5.00;2.45;;;;;;;2.31;85.17;103103.94;5042298;28;20523;-72
2021/04/17 04:38:41;;;;;;;7.43;3.40;;;;;;;2.34;85.47;103101.44;5042868;28;20052;-72
2021/04/17 04:41:07;;;;;;;7.50;3.42;;;;;;;2.32;84.89;103102.22;5042115;28;20505;-72
2021/04/17 04:43:34;;;;;;;8.55;3.53;;;;;;;2.27;84.89;103098.53;5044332;28;20087;-74
2021/04/17 04:46:02;;;;;;;10.32;3.58;;;;;;;2.26;85.63;103101.97;5038744;28;20066;-74
2021/04/17 04:48:29;;;;;;;6.85;3.15;;;;;;;2.27;85.66;103098.53;5042306;28;20312;-72
2021/04/17 04:50:58;;;;;;;6.40;2.90;;;;;;;2.22;85.46;103101.84;5039812;28;20069;-76
2021/04/17 04:53:25;;;;;;;5.97;3.08;;;;;;;2.19;85.39;103096.47;5040959;28;20067;-75
2021/04/17 04:55:52;;;;;;;9.55;3.80;;;;;;;2.26;86.07;103107.25;5042541;28;20310;-77
2021/04/17 04:58:21;;;;;;;7.18;3.60;;;;;;;2.31;86.02;103103.06;5039355;28;20111;-74
2021/04/17 05:00:48;;;;;;;8.00;3.65;;;;;;;2.24;85.73;103102.81;5043137;28;20088;-77
2021/04/17 05:03:15;;;;;;;7.63;3.40;;;;;;;2.33;86.23;103099.63;5041479;28;20159;-74
2021/04/17 05:05:43;;;;;;;8.75;4.30;;;;;;;2.32;86.04;103105.75;5039483;28;20323;-75
2021/04/17 05:08:10;;;;;;;6.25;3.38;;;;;;;2.32;85.66;103100.47;5045553;28;20427;-74
2021/04/17 05:10:37;;;;;;;7.03;3.80;;;;;;;2.32;85.69;103094.31;5040861;28;20147;-74
2021/04/17 05:13:04;;;;;;;6.63;3.47;;;;;;;2.30;85.35;103099.53;5041988;28;20065;-75
2021/04/17 05:15:31;;;;;;;6.93;3.60;;;;;;;2.37;85.85;103100.66;5040976;28;20152;-75
2021/04/17 05:17:58;;;;;;;7.82;4.50;;;;;;;2.42;85.84;103089.44;5039192;28;20087;-75
2021/04/17 05:20:25;;;;;;;7.82;4.28;;;;;;;2.50;85.46;103099.38;5057561;28;20068;-73
2021/04/17 05:22:52;;;;;;;7.93;3.75;;;;;;;2.55;85.41;103100.44;5043311;28;20199;-74
2021/04/17 05:25:19;;;;;;;9.10;4.03;;;;;;;2.68;85.33;103102.69;5037201;28;20080;-75
2021/04/17 05:27:46;;;;;;;5.50;3.40;;;;;;;2.83;85.17;103101.44;5043421;28;20053;-74
2021/04/17 05:30:14;;;;;;;7.97;3.50;;;;;;;2.93;84.85;103101.84;5038880;28;20168;-74
2021/04/17 05:32:41;;;;;;;7.57;3.70;;;;;;;3.03;84.33;103097.81;5057061;28;20486;-75
2021/04/17 05:35:09;;;;;;;7.68;3.95;;;;;;;3.12;84.24;103099.84;5038177;28;20152;-75
2021/04/17 05:37:36;;;;;;;9.23;4.13;;;;;;;3.27;83.25;103097.75;5044073;28;20053;-75
2021/04/17 05:40:05;;;;;;;9.55;3.67;;;;;;;3.45;82.99;103099.22;5040565;28;20080;-75
2021/04/17 05:42:32;;;;;;;6.63;3.58;;;;;;;3.58;81.93;103093.50;5040963;28;20064;-77
2021/04/17 05:44:59;;;;;;;8.18;3.60;;;;;;;3.71;82.24;103089.47;5037804;28;20068;-75
2021/04/17 05:47:28;;;;;;;6.38;3.55;;;;;;;3.88;81.07;103088.31;5038851;28;20545;-76
2021/04/17 05:49:55;;;;;;;7.03;3.63;;;;;;;4.09;80.82;103093.34;5043971;28;20065;-75
2021/04/17 05:52:22;;;;;;;7.93;3.58;;;;;;;4.23;79.72;103095.53;5038537;28;20072;-75
2021/04/17 05:54:49;;;;;;;7.35;4.07;;;;;;;4.42;79.40;103099.59;5041875;28;20063;-77
2021/04/17 05:57:16;;;;;;;9.07;3.80;;;;;;;4.60;78.71;103097.50;5040435;28;20057;-77
2021/04/17 05:59:43;;;;;;;8.50;3.45;;;;;;;4.74;78.34;103095.25;5043011;28;20064;-77
2021/04/17 06:02:16;;;;;;;8.45;4.22;;;;;;;5.03;77.48;103096.03;5042161;28;20059;-77
2021/04/17 06:04:43;;;;;;;7.00;3.75;;;;;;;5.40;77.00;103093.47;5041583;28;20059;-76
2021/04/17 06:07:10;;;;;;;8.20;4.13;;;;;;;5.63;75.52;103088.72;5039069;28;20076;-75
2021/04/17 06:09:37;;;;;;;8.50;3.88;;;;;;;5.79;74.84;103092.66;5041780;28;20450;-77
2021/04/17 06:12:04;;;;;;;7.97;3.63;;;;;;;5.89;74.24;103086.72;5038855;28;20403;-77
2021/04/17 06:14:32;;;;;;;6.50;3.60;;;;;;;6.21;73.59;103086.56;5042882;28;20464;-76
2021/04/17 06:16:59;;;;;;;8.02;3.80;;;;;;;6.28;73.45;103088.50;5041713;28;20057;-77
2021/04/17 06:19:26;;;;;;;8.50;3.60;;;;;;;6.44;71.59;103087.06;5043103;28;20455;-79
2021/04/17 06:21:54;;;;;;;8.90;3.53;;;;;;;6.74;71.70;103083.22;5037882;28;20060;-76
2021/04/17 06:24:21;;;;;;;6.47;3.08;;;;;;;6.80;70.42;103080.69;5043592;28;20060;-76
2021/04/17 06:26:48;;;;;;;7.40;3.10;;;;;;;7.04;70.50;103082.91;5039010;28;20063;-79
2021/04/17 06:29:16;;;;;;;5.22;3.05;;;;;;;7.25;68.97;103081.50;5036395;28;20096;-74
2021/04/17 06:31:43;;;;;;;7.07;3.22;;;;;;;7.24;68.74;103088.59;5039967;28;20068;-76
2021/04/17 06:34:10;;;;;;;5.38;2.60;;;;;;;7.58;67.46;103080.31;5039839;28;20071;-76
2021/04/17 06:36:37;;;;;;;11.07;3.92;;;;;;;7.31;67.69;103086.06;5039841;28;20065;-75
2021/04/17 06:39:06;;;;;;;6.45;2.80;;;;;;;7.47;67.65;103081.03;5036394;28;20421;-75
2021/04/17 06:41:34;;;;;;;8.25;3.60;;;;;;;7.50;67.37;103084.59;5039836;28;20053;-77
2021/04/17 06:44:05;;;;;;;7.32;3.17;;;;;;;7.46;67.39;103081.88;5038102;28;20155;-76
2021/04/17 06:46:34;;;;;;;7.43;2.90;;;;;;;7.62;66.04;103082.13;5040000;28;20159;-76
2021/04/17 06:49:05;;;;;;;7.82;3.40;;;;;;;7.80;66.09;103076.22;5039032;28;20172;-76
2021/04/17 06:51:35;;;;;;;7.93;3.33;;;;;;;7.73;66.10;103088.53;5045473;28;20088;-76
2021/04/17 06:54:04;;;;;;;7.88;2.97;;;;;;;8.12;65.98;103090.00;5036455;28;20083;-75
2021/04/17 06:56:32;;;;;;;6.75;3.40;;;;;;;8.23;65.22;103087.47;5042825;28;20140;-77
2021/04/17 06:58:59;;;;;;;5.32;2.63;;;;;;;8.51;64.57;103085.19;5038958;28;20067;-75
2021/04/17 07:01:29;;;;;;;7.53;3.08;;;;;;;8.68;64.01;103078.28;5039182;28;20455;-76
2021/04/17 07:03:59;;;;;;;7.22;2.78;;;;;;;8.35;63.24;103082.28;5038043;28;20178;-77
2021/04/17 07:06:26;;;;;;;5.28;2.88;;;;;;;8.92;61.72;103082.09;5039497;28;20069;-78
2021/04/17 07:08:53;;;;;;;6.15;2.67;;;;;;;8.90;60.99;103068.75;5038471;28;20083;-76
2021/04/17 07:11:20;;;;;;;5.20;2.85;;;;;;;8.86;59.75;103079.38;5037825;28;20068;-79
2021/04/17 07:14:11;;;;;;;5.20;2.50;;;;;;;9.37;59.81;103063.91;5038608;28;20085;-76
2021/04/17 07:17:01;;;;;;;7.07;2.92;;;;;;;9.17;58.85;103067.25;5037772;28;20065;-76
2021/04/17 07:19:52;;;;;;;6.22;2.58;;;;;;;8.84;58.45;103074.03;5040213;28;20064;-76
2021/04/17 07:22:22;;;;;;;5.22;2.42;;;;;;;9.61;58.50;103071.19;5039730;28;20374;-76
2021/04/17 07:24:51;;;;;;;3.63;2.53;;;;;;;9.42;55.78;103067.50;5045527;28;20069;-75
2021/04/17 07:27:35;;;;;;;4.32;2.58;;;;;;;9.72;56.91;103062.38;5041633;28;20057;-75
2021/04/17 07:30:08;;;;;;;3.70;2.28;;;;;;;10.01;55.32;103071.44;5040078;28;20499;-77
2021/04/17 07:32:35;;;;;;;5.78;2.20;;;;;;;9.74;53.61;103067.72;5040326;28;20296;-74
2021/04/17 07:35:09;;;;;;;6.13;2.40;;;;;;;10.24;53.51;103072.47;5057482;28;20065;-76
2021/04/17 07:37:39;;;;;;;4.85;2.22;;;;;;;10.51;52.21;103072.63;5045026;28;20061;-75
2021/04/17 07:40:19;;;;;;;5.90;2.83;;;;;;;10.65;53.28;103066.41;5055057;28;20495;-75
2021/04/17 07:42:49;;;;;;;8.68;2.47;;;;;;;10.75;52.37;103069.13;5037740;28;20061;-76
2021/04/17 07:45:26;;;;;;;7.32;2.72;;;;;;;10.20;50.99;103064.41;5043161;28;20057;-75
2021/04/17 07:47:58;;;;;;;5.00;2.45;;;;;;;9.94;51.41;103066.97;5038750;28;20379;-72
2021/04/17 07:50:32;;;;;;;7.75;2.45;;;;;;;10.04;51.37;103067.00;5042493;28;20054;-75
2021/04/17 07:53:00;;;;;;;4.93;2.63;;;;;;;10.07;51.36;103064.38;5036921;28;20057;-73
2021/04/17 07:55:31;;;;;;;5.00;2.10;;;;;;;10.50;49.22;103068.16;5043332;28;20053;-73
2021/04/17 07:58:00;;;;;;;4.72;2.30;;;;;;;10.64;49.52;103059.31;5043059;28;20069;-75
2021/04/17 08:00:28;;;;;;;3.80;2.58;;;;;;;10.49;48.04;103064.59;5043334;28;20098;-75
2021/04/17 08:02:57;;;;;;;3.63;2.20;;;;;;;10.89;48.14;103061.16;5040326;28;20057;-73
2021/04/17 08:05:26;;;;;;;8.05;2.97;;;;;;;10.91;46.83;103062.03;5044523;28;20057;-73
2021/04/17 08:07:55;;;;;;;3.80;2.15;;;;;;;11.08;47.26;103062.06;5041727;28;20065;-72
2021/04/17 08:10:23;;;;;;;3.47;2.30;;;;;;;11.08;46.07;103054.94;5045915;28;20057;-72
2021/04/17 08:12:50;;;;;;;4.07;2.17;;;;;;;11.16;46.41;103062.97;5041391;28;20084;-72
2021/04/17 08:15:19;;;;;;;6.25;2.42;;;;;;;11.10;45.78;103063.88;5042301;28;20065;-72
2021/04/17 08:17:49;;;;;;;4.25;2.10;;;;;;;11.03;45.44;103060.28;5040695;28;20061;-72
2021/04/17 08:20:18;;;;;;;5.07;2.40;;;;;;;11.54;45.36;103057.63;5042230;28;20065;-72
2021/04/17 08:22:48;;;;;;;5.80;2.85;;;;;;;11.66;44.81;103058.50;5040649;28;20644;-72
2021/04/17 08:25:19;;;;;;;4.43;1.90;;;;;;;11.30;42.38;103050.50;5041179;28;20160;-72
2021/04/17 08:27:47;;;;;;;3.20;1.80;;;;;;;11.38;41.65;103056.72;5038593;28;20527;-72
2021/04/17 08:30:20;;;;;;;4.18;1.92;;;;;;;10.97;42.11;103065.63;5041820;28;20044;-72
2021/04/17 08:32:47;;;;;;;4.75;2.67;;;;;;;11.37;41.92;103057.63;5038971;28;20056;-74
2021/04/17 08:35:15;;;;;;;3.40;1.70;;;;;;;11.86;42.32;103059.34;5039974;28;20065;-75
2021/04/17 08:38:02;;;;;;;2.72;1.75;;;;;;;11.46;41.77;103054.06;5045547;28;20053;-75
2021/04/17 08:40:44;;;;;;;3.10;1.70;;;;;;;11.74;41.33;103044.22;5040658;28;20067;-74
2021/04/17 08:43:33;;;;;;;2.55;1.98;;;;;;;11.83;40.82;103048.66;5044286;28;20067;-73
2021/04/17 08:46:07;;;;;;;5.28;2.13;;;;;;;11.74;39.58;103043.31;5039420;28;20468;-74
2021/04/17 08:48:51;;;;;;;3.10;1.77;;;;;;;11.90;39.95;103046.84;5037146;28;20057;-74
2021/04/17 08:51:27;;;;;;;2.60;1.90;;;;;;;12.14;38.95;103044.16;5040907;28;20415;-74
2021/04/17 08:54:17;;;;;;;3.22;1.60;;;;;;;12.14;37.90;103046.81;5038789;28;20495;-75
2021/04/17 08:56:54;;;;;;;3.25;1.70;;;;;;;11.61;36.77;103038.88;5039096;28;20064;-74
2021/04/17 08:59:24;;;;;;;4.30;1.67;;;;;;;11.64;36.47;103033.53;5039353;28;20351;-74
2021/04/17 09:01:53;;;;;;;2.05;1.58;;;;;;;11.83;36.92;103040.63;5038457;28;20308;-74
2021/04/17 09:04:22;;;;;;;2.35;1.50;;;;;;;12.21;36.64;103041.44;5040506;28;20307;-74
2021/04/17 09:06:52;;;;;;;3.38;2.05;;;;;;;11.89;33.64;103034.38;5043487;28;20053;-74
2021/04/17 09:09:27;;;;;;;2.47;1.75;;;;;;;12.37;33.78;103039.59;5038166;28;20069;-75
2021/04/17 09:11:55;;;;;;;4.95;1.90;;;;;;;12.67;34.38;103035.88;5037966;28;20063;-72
2021/04/17 09:14:48;;;;;;;2.90;1.52;;;;;;;12.54;33.94;103037.72;5041082;28;20060;-72
2021/04/17 09:17:50;;;;;;;3.72;1.70;;;;;;;12.74;33.91;103040.28;5044604;28;20060;-71
2021/04/17 09:20:38;;;;;;;3.97;1.80;;;;;;;13.05;33.12;103030.22;5035995;28;20064;-72
2021/04/17 09:23:06;;;;;;;3.90;1.55;;;;;;;12.97;33.75;103031.19;5040195;28;20102;-75
2021/04/17 09:25:41;;;;;;;3.65;1.60;;;;;;;12.55;33.09;103030.56;5036063;28;20067;-74
2021/04/17 09:28:08;;;;;;;3.25;1.70;;;;;;;12.62;31.23;103025.19;5041779;28;20593;-74
2021/04/17 09:30:36;;;;;;;4.18;1.60;;;;;;;12.63;31.95;103034.09;5035391;28;20173;-72
2021/04/17 09:33:04;;;;;;;1.95;1.63;;;;;;;12.91;31.48;103029.47;5037328;28;20064;-71
2021/04/17 09:35:35;;;;;;;2.97;1.80;;;;;;;13.23;31.18;103021.16;5038821;28;20180;-72
2021/04/17 09:38:08;;;;;;;4.10;1.80;;;;;;;12.46;30.31;103011.00;5039473;28;20061;-72
2021/04/17 09:40:38;;;;;;;3.60;1.60;;;;;;;13.28;30.37;103013.09;5038737;28;20061;-71
2021/04/17 09:43:07;;;;;;;3.38;1.60;;;;;;;13.35;30.56;103009.47;5052546;28;20057;-71
2021/04/17 09:45:37;;;;;;;5.15;2.00;;;;;;;12.91;30.40;103008.03;5040385;28;20094;-71
2021/04/17 09:48:07;;;;;;;4.97;2.00;;;;;;;13.45;31.31;102999.56;5038597;28;20084;-71
2021/04/17 09:50:36;;;;;;;2.92;1.80;;;;;;;13.69;31.16;102995.75;5038491;28;20136;-71
2021/04/17 09:53:11;;;;;;;3.17;1.95;;;;;;;13.88;30.31;102991.03;5037564;28;20071;-72
2021/04/17 09:56:03;;;;;;;4.53;2.00;;;;;;;13.58;30.53;102994.94;5042877;28;20482;-73
2021/04/17 09:58:34;;;;;;;3.35;1.90;;;;;;;13.25;30.90;102987.19;5018324;28;20069;-72
2021/04/17 10:01:09;;;;;;;3.63;2.20;;;;;;;13.53;31.28;102986.94;5038218;28;20053;-72
2021/04/17 10:03:37;;;;;;;3.83;2.00;;;;;;;13.74;31.56;102974.19;5036921;28;20064;-71
2021/04/17 10:06:21;;;;;;;4.75;2.20;;;;;;;13.80;32.19;102974.13;5037963;28;20064;-71
2021/04/17 10:08:49;;;;;;;2.60;1.90;;;;;;;13.91;32.81;102972.22;5036483;28;20061;-71
2021/04/17 10:11:27;;;;;;;3.60;2.53;;;;;;;13.72;31.18;102971.53;5040707;28;20132;-72
2021/04/17 10:13:55;;;;;;;3.25;2.28;;;;;;;13.58;32.57;102974.38;5036121;28;20361;-71
2021/04/17 10:16:28;;;;;;;3.03;2.08;;;;;;;13.62;33.04;102954.69;5038972;28;20436;-71
2021/04/17 10:18:56;;;;;;;4.03;2.22;;;;;;;13.63;32.96;102960.91;5035403;28;20440;-71
2021/04/17 10:21:26;;;;;;;4.55;2.58;;;;;;;12.99;33.56;102954.34;5037921;28;20081;-71
2021/04/17 10:24:21;;;;;;;4.22;2.45;;;;;;;13.42;33.05;102956.69;5040255;28;20068;-71
2021/04/17 10:26:53;;;;;;;4.32;2.38;;;;;;;12.96;32.40;102947.25;5036010;28;20072;-71
2021/04/17 10:29:22;;;;;;;5.07;2.20;;;;;;;14.01;34.31;102939.00;5041765;28;20458;-71
2021/04/17 10:32:00;;;;;;;5.40;3.08;;;;;;;14.27;33.85;102943.13;5037211;28;20067;-70
2021/04/17 10:34:27;;;;;;;3.30;2.22;;;;;;;14.63;32.59;102937.25;5041809;28;20371;-72
2021/04/17 10:36:59;;;;;;;3.92;2.30;;;;;;;13.65;33.28;102940.31;5039200;28;20061;-72
2021/04/17 10:39:26;;;;;;;4.65;2.30;;;;;;;14.19;35.02;102934.28;5036000;28;20057;-72
2021/04/17 10:42:07;;;;;;;4.30;2.42;;;;;;;14.87;32.80;102920.72;5041010;28;20057;-72
2021/04/17 10:44:35;;;;;;;5.15;2.40;;;;;;;13.84;33.12;102922.19;5038753;28;20064;-72
2021/04/17 10:47:05;;;;;;;6.60;2.40;;;;;;;13.79;32.62;102924.06;5041793;28;20605;-75
2021/04/17 10:49:36;;;;;;;4.43;2.30;;;;;;;14.40;33.04;102914.25;5037980;28;20056;-75
2021/04/17 10:52:06;;;;;;;5.22;2.60;;;;;;;14.93;33.43;102912.56;5043962;28;20069;-71
2021/04/17 10:54:33;;;;;;;3.47;2.30;;;;;;;14.85;32.38;102911.81;5043334;28;20086;-71
2021/04/17 10:57:04;;;;;;;4.03;2.30;;;;;;;15.27;32.67;102913.72;5046942;28;20065;-71
2021/04/17 10:59:55;;;;;;;5.68;2.40;;;;;;;14.51;32.75;102912.31;5040134;28;20065;-71
2021/04/17 11:02:28;;;;;;;5.47;2.42;;;;;;;13.95;34.27;102914.03;5043417;28;20053;-70
2021/04/17 11:04:56;;;;;;;5.18;2.45;;;;;;;14.17;34.68;102917.31;5039409;28;20053;-70
2021/04/17 11:07:32;;;;;;;7.88;2.60;;;;;;;14.11;33.71;102906.66;5044403;28;20065;-71
2021/04/17 11:09:59;;;;;;;5.63;2.78;;;;;;;13.82;33.80;102905.25;5040219;28;20064;-71
2021/04/17 11:12:29;;;;;;;8.68;2.92;;;;;;;14.35;33.85;102886.59;5041573;28;20140;-71
2021/04/17 11:15:16;;;;;;;6.32;2.78;;;;;;;14.21;33.37;102897.53;5041899;28;20296;-71
2021/04/17 11:18:06;;;;;;;4.60;2.70;;;;;;;13.92;34.05;102900.66;5042492;28;20151;-71
2021/04/17 11:20:43;;;;;;;5.18;2.50;;;;;;;14.87;32.70;102888.47;5038531;28;20095;-71
2021/04/17 11:23:37;;;;;;;4.72;2.60;;;;;;;14.55;32.40;102879.09;5041991;28;20068;-70
2021/04/17 11:26:06;;;;;;;5.63;2.58;;;;;;;14.72;32.94;102877.97;5041955;28;20088;-71
2021/04/17 11:28:33;;;;;;;4.63;2.40;;;;;;;14.43;33.73;102873.06;5041859;28;20060;-70
2021/04/17 11:31:00;;;;;;;5.28;2.28;;;;;;;14.50;31.74;102864.00;5043642;28;20062;-70
2021/04/17 11:33:29;;;;;;;6.95;2.67;;;;;;;14.70;33.47;102866.38;5040705;28;20057;-71
2021/04/17 11:35:56;;;;;;;3.45;2.10;;;;;;;15.52;32.34;102863.03;5042884;28;20148;-71
2021/04/17 11:38:23;;;;;;;6.43;2.53;;;;;;;14.59;32.54;102861.16;5042183;28;20148;-70
2021/04/17 11:40:49;;;;;;;4.45;2.47;;;;;;;15.16;32.33;102854.78;5039920;28;21031;-71
2021/04/17 11:43:16;;;;;;;4.38;2.10;;;;;;;14.32;32.76;102866.06;5039126;28;20356;-70
2021/04/17 11:45:43;;;;;;;7.18;2.60;;;;;;;13.78;33.64;102868.63;5040337;28;20064;-71